sensor_id;sensor_type;location;lat;lon;timestamp;temperature;humidity
20284;DHT22;10301;50.832;4.080;2023-02-15T00:01:32;4.90;1.00
20284;DHT22;10301;50.832;4.080;2023-02-15T00:03:57;4.90;1.00
20284;DHT22;10301;50.832;4.080;2023-02-15T00:06:23;5.00;2.30
20284;DHT22;10301;50.832;4.080;2023-02-15T00:08:49;5.10;1.20
20284;DHT22;10301;50.832;4.080;2023-02-15T00:11:17;5.20;1.00
20284;DHT22;10301;50.832;4.080;2023-02-15T00:14:08;5.30;1.00
20284;DHT22;10301;50.832;4.080;2023-02-15T00:16:34;5.30;1.00
20284;DHT22;10301;50.832;4.080;2023-02-15T00:19:01;5.20;1.00
20284;DHT22;10301;50.832;4.080;2023-02-15T00:21:28;5.20;1.00
20284;DHT22;10301;50.832;4.080;2023-02-15T00:23:55;5.30;1.00
20284;DHT22;10301;50.832;4.080;2023-02-15T00:26:21;5.30;1.00
20284;DHT22;10301;50.832;4.080;2023-02-15T00:28:47;5.30;1.00
20284;DHT22;10301;50.832;4.080;2023-02-15T00:31:12;5.30;1.00
20284;DHT22;10301;50.832;4.080;2023-02-15T00:33:39;5.30;3.80
20284;DHT22;10301;50.832;4.080;2023-02-15T00:36:09;5.40;5.40
20284;DHT22;10301;50.832;4.080;2023-02-15T00:38:36;5.40;4.30
20284;DHT22;10301;50.832;4.080;2023-02-15T00:41:03;5.30;3.30
20284;DHT22;10301;50.832;4.080;2023-02-15T00:43:30;5.40;7.00
20284;DHT22;10301;50.832;4.080;2023-02-15T00:45:57;5.60;1.00
20284;DHT22;10301;50.832;4.080;2023-02-15T00:48:22;5.60;1.00
20284;DHT22;10301;50.832;4.080;2023-02-15T00:50:54;5.50;1.00
20284;DHT22;10301;50.832;4.080;2023-02-15T00:53:20;5.30;1.00
20284;DHT22;10301;50.832;4.080;2023-02-15T00:55:46;5.30;1.00
20284;DHT22;10301;50.832;4.080;2023-02-15T00:58:12;5.30;1.00
20284;DHT22;10301;50.832;4.080;2023-02-15T01:00:38;5.20;1.00
20284;DHT22;10301;50.832;4.080;2023-02-15T01:03:05;5.00;8.10
20284;DHT22;10301;50.832;4.080;2023-02-15T01:05:31;5.20;16.80
20284;DHT22;10301;50.832;4.080;2023-02-15T01:07:58;5.20;12.60
20284;DHT22;10301;50.832;4.080;2023-02-15T01:10:24;5.20;11.10
20284;DHT22;10301;50.832;4.080;2023-02-15T01:12:51;5.20;10.20
20284;DHT22;10301;50.832;4.080;2023-02-15T01:15:17;5.20;15.10
20284;DHT22;10301;50.832;4.080;2023-02-15T01:17:42;5.10;16.60
20284;DHT22;10301;50.832;4.080;2023-02-15T01:20:11;5.20;21.10
20284;DHT22;10301;50.832;4.080;2023-02-15T01:22:37;5.20;18.00
20284;DHT22;10301;50.832;4.080;2023-02-15T01:25:03;5.10;23.70
20284;DHT22;10301;50.832;4.080;2023-02-15T01:27:29;5.00;28.10
20284;DHT22;10301;50.832;4.080;2023-02-15T01:29:56;4.80;33.70
20284;DHT22;10301;50.832;4.080;2023-02-15T01:32:22;4.80;35.60
20284;DHT22;10301;50.832;4.080;2023-02-15T01:34:48;4.60;41.40
20284;DHT22;10301;50.832;4.080;2023-02-15T01:37:13;4.50;48.60
20284;DHT22;10301;50.832;4.080;2023-02-15T01:39:39;4.50;50.20
20284;DHT22;10301;50.832;4.080;2023-02-15T01:42:04;4.50;49.00
20284;DHT22;10301;50.832;4.080;2023-02-15T01:49:47;4.50;49.20
20284;DHT22;10301;50.832;4.080;2023-02-15T01:52:15;4.60;44.10
20284;DHT22;10301;50.832;4.080;2023-02-15T01:54:44;4.60;39.80
20284;DHT22;10301;50.832;4.080;2023-02-15T01:57:15;4.60;32.20
20284;DHT22;10301;50.832;4.080;2023-02-15T01:59:47;4.40;26.60
20284;DHT22;10301;50.832;4.080;2023-02-15T02:02:15;4.30;27.80
20284;DHT22;10301;50.832;4.080;2023-02-15T02:04:49;4.30;28.30
20284;DHT22;10301;50.832;4.080;2023-02-15T02:07:19;4.30;27.50
20284;DHT22;10301;50.832;4.080;2023-02-15T02:09:45;4.50;24.00
20284;DHT22;10301;50.832;4.080;2023-02-15T02:12:11;4.50;16.90
20284;DHT22;10301;50.832;4.080;2023-02-15T02:14:38;4.40;13.20
20284;DHT22;10301;50.832;4.080;2023-02-15T02:17:18;4.40;11.90
20284;DHT22;10301;50.832;4.080;2023-02-15T02:20:13;4.20;11.60
20284;DHT22;10301;50.832;4.080;2023-02-15T02:41:17;4.10;1.00
20284;DHT22;10301;50.832;4.080;2023-02-15T02:43:56;4.20;1.00
20284;DHT22;10301;50.832;4.080;2023-02-15T02:46:58;4.30;1.00
20284;DHT22;10301;50.832;4.080;2023-02-15T02:49:35;4.00;1.00
20284;DHT22;10301;50.832;4.080;2023-02-15T02:52:05;4.00;1.00
20284;DHT22;10301;50.832;4.080;2023-02-15T02:54:34;3.60;1.00
20284;DHT22;10301;50.832;4.080;2023-02-15T02:57:05;3.60;1.00
20284;DHT22;10301;50.832;4.080;2023-02-15T02:59:37;3.70;1.00
20284;DHT22;10301;50.832;4.080;2023-02-15T03:02:10;3.60;1.00
20284;DHT22;10301;50.832;4.080;2023-02-15T03:04:41;3.30;1.00
20284;DHT22;10301;50.832;4.080;2023-02-15T03:07:19;3.40;1.00
20284;DHT22;10301;50.832;4.080;2023-02-15T03:09:50;3.50;1.00
20284;DHT22;10301;50.832;4.080;2023-02-15T03:12:22;3.50;1.00
20284;DHT22;10301;50.832;4.080;2023-02-15T03:15:05;3.40;1.00
20284;DHT22;10301;50.832;4.080;2023-02-15T03:17:36;3.40;1.00
20284;DHT22;10301;50.832;4.080;2023-02-15T03:20:30;3.40;1.00
20284;DHT22;10301;50.832;4.080;2023-02-15T03:23:16;3.20;1.00
20284;DHT22;10301;50.832;4.080;2023-02-15T03:25:48;3.20;1.00
20284;DHT22;10301;50.832;4.080;2023-02-15T03:28:20;3.10;10.00
20284;DHT22;10301;50.832;4.080;2023-02-15T03:30:52;3.20;13.30
20284;DHT22;10301;50.832;4.080;2023-02-15T03:33:20;3.10;13.90
20284;DHT22;10301;50.832;4.080;2023-02-15T03:35:53;3.10;21.10
20284;DHT22;10301;50.832;4.080;2023-02-15T03:38:28;3.20;25.20
20284;DHT22;10301;50.832;4.080;2023-02-15T03:40:57;3.10;25.20
20284;DHT22;10301;50.832;4.080;2023-02-15T03:49:12;3.20;31.30
20284;DHT22;10301;50.832;4.080;2023-02-15T03:51:42;3.40;34.10
20284;DHT22;10301;50.832;4.080;2023-02-15T03:54:19;3.60;31.90
20284;DHT22;10301;50.832;4.080;2023-02-15T03:57:24;3.60;34.20
20284;DHT22;10301;50.832;4.080;2023-02-15T04:00:24;3.70;32.40
20284;DHT22;10301;50.832;4.080;2023-02-15T04:05:40;3.80;1.00
20284;DHT22;10301;50.832;4.080;2023-02-15T04:08:06;3.60;1.00
20284;DHT22;10301;50.832;4.080;2023-02-15T04:10:32;3.40;1.00
20284;DHT22;10301;50.832;4.080;2023-02-15T04:13:16;3.20;1.00
20284;DHT22;10301;50.832;4.080;2023-02-15T04:15:41;3.00;1.00
20284;DHT22;10301;50.832;4.080;2023-02-15T04:18:26;2.90;1.00
20284;DHT22;10301;50.832;4.080;2023-02-15T04:21:10;2.90;1.00
20284;DHT22;10301;50.832;4.080;2023-02-15T04:23:54;2.80;1.00
20284;DHT22;10301;50.832;4.080;2023-02-15T04:26:38;2.70;1.00
20284;DHT22;10301;50.832;4.080;2023-02-15T04:29:03;2.70;1.00
20284;DHT22;10301;50.832;4.080;2023-02-15T04:31:29;2.60;1.00
20284;DHT22;10301;50.832;4.080;2023-02-15T04:33:54;2.70;1.00
20284;DHT22;10301;50.832;4.080;2023-02-15T04:36:20;2.70;1.00
20284;DHT22;10301;50.832;4.080;2023-02-15T04:38:46;2.70;1.00
20284;DHT22;10301;50.832;4.080;2023-02-15T04:41:11;2.70;1.00
20284;DHT22;10301;50.832;4.080;2023-02-15T04:43:38;2.70;1.00
20284;DHT22;10301;50.832;4.080;2023-02-15T04:46:04;2.80;1.00
20284;DHT22;10301;50.832;4.080;2023-02-15T04:48:30;2.80;1.00
20284;DHT22;10301;50.832;4.080;2023-02-15T04:50:56;2.70;1.00
20284;DHT22;10301;50.832;4.080;2023-02-15T04:53:21;2.60;2.40
20284;DHT22;10301;50.832;4.080;2023-02-15T04:55:47;2.60;17.90
20284;DHT22;10301;50.832;4.080;2023-02-15T04:58:13;2.70;32.60
20284;DHT22;10301;50.832;4.080;2023-02-15T05:00:38;2.70;41.80
20284;DHT22;10301;50.832;4.080;2023-02-15T05:03:04;2.90;47.90
20284;DHT22;10301;50.832;4.080;2023-02-15T05:05:30;3.00;49.60
20284;DHT22;10301;50.832;4.080;2023-02-15T05:07:55;3.10;51.10
20284;DHT22;10301;50.832;4.080;2023-02-15T05:10:21;3.10;50.00
20284;DHT22;10301;50.832;4.080;2023-02-15T05:12:47;3.30;45.20
20284;DHT22;10301;50.832;4.080;2023-02-15T05:15:13;3.30;40.40
20284;DHT22;10301;50.832;4.080;2023-02-15T05:17:38;3.40;38.20
20284;DHT22;10301;50.832;4.080;2023-02-15T05:20:04;3.40;28.00
20284;DHT22;10301;50.832;4.080;2023-02-15T05:22:30;3.50;22.50
20284;DHT22;10301;50.832;4.080;2023-02-15T05:24:56;3.40;17.90
20284;DHT22;10301;50.832;4.080;2023-02-15T05:27:40;3.50;11.50
20284;DHT22;10301;50.832;4.080;2023-02-15T05:30:24;3.50;5.60
20284;DHT22;10301;50.832;4.080;2023-02-15T05:32:50;3.60;1.00
20284;DHT22;10301;50.832;4.080;2023-02-15T05:35:15;3.50;1.00
20284;DHT22;10301;50.832;4.080;2023-02-15T05:37:41;3.50;1.00
20284;DHT22;10301;50.832;4.080;2023-02-15T05:40:08;3.40;1.00
20284;DHT22;10301;50.832;4.080;2023-02-15T05:42:33;3.30;1.00
20284;DHT22;10301;50.832;4.080;2023-02-15T05:44:59;3.20;1.00
20284;DHT22;10301;50.832;4.080;2023-02-15T05:47:25;3.20;1.00
20284;DHT22;10301;50.832;4.080;2023-02-15T05:49:50;3.10;1.70
20284;DHT22;10301;50.832;4.080;2023-02-15T05:52:16;3.10;13.90
20284;DHT22;10301;50.832;4.080;2023-02-15T05:54:41;3.20;19.40
20284;DHT22;10301;50.832;4.080;2023-02-15T05:57:07;3.20;22.20
20284;DHT22;10301;50.832;4.080;2023-02-15T05:59:33;3.30;21.30
20284;DHT22;10301;50.832;4.080;2023-02-15T06:01:58;3.40;21.30
20284;DHT22;10301;50.832;4.080;2023-02-15T06:04:24;3.50;14.00
20284;DHT22;10301;50.832;4.080;2023-02-15T06:06:49;3.40;12.50
20284;DHT22;10301;50.832;4.080;2023-02-15T06:09:15;3.50;11.80
20284;DHT22;10301;50.832;4.080;2023-02-15T06:11:44;3.50;11.70
20284;DHT22;10301;50.832;4.080;2023-02-15T06:14:10;3.50;8.10
20284;DHT22;10301;50.832;4.080;2023-02-15T06:16:35;3.50;8.80
20284;DHT22;10301;50.832;4.080;2023-02-15T06:19:02;3.50;9.70
20284;DHT22;10301;50.832;4.080;2023-02-15T06:21:28;3.40;11.80
20284;DHT22;10301;50.832;4.080;2023-02-15T06:23:54;3.40;9.30
20284;DHT22;10301;50.832;4.080;2023-02-15T06:26:20;3.40;12.60
20284;DHT22;10301;50.832;4.080;2023-02-15T06:28:45;3.30;14.70
20284;DHT22;10301;50.832;4.080;2023-02-15T06:31:11;3.20;22.40
20284;DHT22;10301;50.832;4.080;2023-02-15T06:33:36;3.30;32.70
20284;DHT22;10301;50.832;4.080;2023-02-15T06:36:03;3.30;32.50
20284;DHT22;10301;50.832;4.080;2023-02-15T06:38:29;3.40;38.30
20284;DHT22;10301;50.832;4.080;2023-02-15T06:40:55;3.40;38.00
20284;DHT22;10301;50.832;4.080;2023-02-15T06:43:20;3.30;42.90
20284;DHT22;10301;50.832;4.080;2023-02-15T06:45:46;3.30;50.90
20284;DHT22;10301;50.832;4.080;2023-02-15T06:48:12;3.30;54.70
20284;DHT22;10301;50.832;4.080;2023-02-15T06:50:38;3.30;57.20
20284;DHT22;10301;50.832;4.080;2023-02-15T06:53:03;3.40;58.30
20284;DHT22;10301;50.832;4.080;2023-02-15T06:55:29;3.50;52.10
20284;DHT22;10301;50.832;4.080;2023-02-15T06:57:55;3.50;52.20
20284;DHT22;10301;50.832;4.080;2023-02-15T07:00:21;3.40;52.60
20284;DHT22;10301;50.832;4.080;2023-02-15T07:02:55;3.60;55.20
20284;DHT22;10301;50.832;4.080;2023-02-15T07:05:22;3.80;46.30
20284;DHT22;10301;50.832;4.080;2023-02-15T07:07:48;3.90;36.50
20284;DHT22;10301;50.832;4.080;2023-02-15T07:10:13;4.00;26.30
20284;DHT22;10301;50.832;4.080;2023-02-15T07:12:39;4.10;21.00
20284;DHT22;10301;50.832;4.080;2023-02-15T07:15:15;4.10;12.10
20284;DHT22;10301;50.832;4.080;2023-02-15T07:17:42;4.10;1.00
20284;DHT22;10301;50.832;4.080;2023-02-15T07:20:12;4.10;1.00
20284;DHT22;10301;50.832;4.080;2023-02-15T07:22:38;4.00;1.00
20284;DHT22;10301;50.832;4.080;2023-02-15T07:25:04;4.00;1.00
20284;DHT22;10301;50.832;4.080;2023-02-15T07:27:31;3.90;1.00
20284;DHT22;10301;50.832;4.080;2023-02-15T07:29:57;3.90;1.00
20284;DHT22;10301;50.832;4.080;2023-02-15T07:32:23;3.80;1.00
20284;DHT22;10301;50.832;4.080;2023-02-15T07:34:48;3.80;4.70
20284;DHT22;10301;50.832;4.080;2023-02-15T07:37:14;4.00;5.20
20284;DHT22;10301;50.832;4.080;2023-02-15T07:39:40;4.20;1.00
20284;DHT22;10301;50.832;4.080;2023-02-15T07:42:05;4.20;1.00
20284;DHT22;10301;50.832;4.080;2023-02-15T07:44:31;4.30;1.00
20284;DHT22;10301;50.832;4.080;2023-02-15T07:46:56;4.40;1.00
20284;DHT22;10301;50.832;4.080;2023-02-15T07:49:22;4.40;1.00
20284;DHT22;10301;50.832;4.080;2023-02-15T07:51:48;4.40;1.00
20284;DHT22;10301;50.832;4.080;2023-02-15T07:54:14;4.40;1.00
20284;DHT22;10301;50.832;4.080;2023-02-15T07:56:39;4.60;1.00
20284;DHT22;10301;50.832;4.080;2023-02-15T07:59:05;4.60;1.00
20284;DHT22;10301;50.832;4.080;2023-02-15T08:01:33;4.60;1.00
20284;DHT22;10301;50.832;4.080;2023-02-15T08:03:59;4.60;1.00
20284;DHT22;10301;50.832;4.080;2023-02-15T08:06:27;4.50;1.00
20284;DHT22;10301;50.832;4.080;2023-02-15T08:08:52;4.40;1.00
20284;DHT22;10301;50.832;4.080;2023-02-15T08:11:19;4.40;1.00
20284;DHT22;10301;50.832;4.080;2023-02-15T08:16:41;4.20;1.00
20284;DHT22;10301;50.832;4.080;2023-02-15T08:19:15;4.30;1.00
20284;DHT22;10301;50.832;4.080;2023-02-15T08:21:44;4.30;1.00
20284;DHT22;10301;50.832;4.080;2023-02-15T08:24:11;4.50;1.00
20284;DHT22;10301;50.832;4.080;2023-02-15T08:26:38;4.50;1.00
20284;DHT22;10301;50.832;4.080;2023-02-15T08:29:05;4.70;1.00
20284;DHT22;10301;50.832;4.080;2023-02-15T08:31:32;4.70;1.00
20284;DHT22;10301;50.832;4.080;2023-02-15T08:33:58;4.80;1.00
20284;DHT22;10301;50.832;4.080;2023-02-15T08:36:26;4.80;1.00
20284;DHT22;10301;50.832;4.080;2023-02-15T08:38:53;4.90;1.00
20284;DHT22;10301;50.832;4.080;2023-02-15T08:41:21;4.90;1.00
20284;DHT22;10301;50.832;4.080;2023-02-15T08:43:49;5.10;1.00
20284;DHT22;10301;50.832;4.080;2023-02-15T08:46:17;5.20;1.00
20284;DHT22;10301;50.832;4.080;2023-02-15T08:48:43;5.20;1.00
20284;DHT22;10301;50.832;4.080;2023-02-15T08:51:14;5.40;1.00
20284;DHT22;10301;50.832;4.080;2023-02-15T08:53:42;5.50;1.00
20284;DHT22;10301;50.832;4.080;2023-02-15T08:56:08;5.50;1.00
20284;DHT22;10301;50.832;4.080;2023-02-15T08:58:35;5.20;1.00
20284;DHT22;10301;50.832;4.080;2023-02-15T09:01:07;5.50;1.00
20284;DHT22;10301;50.832;4.080;2023-02-15T09:03:33;5.80;1.00
20284;DHT22;10301;50.832;4.080;2023-02-15T09:06:00;6.10;1.00
20284;DHT22;10301;50.832;4.080;2023-02-15T09:08:27;6.40;1.00
20284;DHT22;10301;50.832;4.080;2023-02-15T09:10:53;6.60;1.00
20284;DHT22;10301;50.832;4.080;2023-02-15T09:13:19;6.80;1.00
20284;DHT22;10301;50.832;4.080;2023-02-15T09:15:46;7.10;1.00
20284;DHT22;10301;50.832;4.080;2023-02-15T09:18:11;7.10;1.00
20284;DHT22;10301;50.832;4.080;2023-02-15T09:20:43;7.20;1.00
20284;DHT22;10301;50.832;4.080;2023-02-15T09:23:08;7.40;1.00
20284;DHT22;10301;50.832;4.080;2023-02-15T09:25:34;7.50;1.00
20284;DHT22;10301;50.832;4.080;2023-02-15T09:28:00;7.40;1.00
20284;DHT22;10301;50.832;4.080;2023-02-15T09:30:25;7.30;1.00
20284;DHT22;10301;50.832;4.080;2023-02-15T09:32:51;7.40;1.00
20284;DHT22;10301;50.832;4.080;2023-02-15T09:35:17;7.30;1.00
20284;DHT22;10301;50.832;4.080;2023-02-15T09:37:42;7.40;1.00
20284;DHT22;10301;50.832;4.080;2023-02-15T09:40:08;7.70;1.00
20284;DHT22;10301;50.832;4.080;2023-02-15T09:45:37;7.80;1.00
20284;DHT22;10301;50.832;4.080;2023-02-15T09:48:43;7.90;1.00
20284;DHT22;10301;50.832;4.080;2023-02-15T09:54:20;8.10;1.00
20284;DHT22;10301;50.832;4.080;2023-02-15T09:57:00;8.30;1.00
20284;DHT22;10301;50.832;4.080;2023-02-15T10:02:43;8.50;99.90
20284;DHT22;10301;50.832;4.080;2023-02-15T10:08:10;8.30;1.00
20284;DHT22;10301;50.832;4.080;2023-02-15T10:13:33;8.40;1.00
20284;DHT22;10301;50.832;4.080;2023-02-15T10:19:08;8.30;1.00
20284;DHT22;10301;50.832;4.080;2023-02-15T10:27:11;8.30;1.00
20284;DHT22;10301;50.832;4.080;2023-02-15T10:32:27;9.00;99.90
20284;DHT22;10301;50.832;4.080;2023-02-15T10:35:05;9.10;1.00
20284;DHT22;10301;50.832;4.080;2023-02-15T10:43:28;9.20;1.00
20284;DHT22;10301;50.832;4.080;2023-02-15T10:55:08;9.30;28.10
20284;DHT22;10301;50.832;4.080;2023-02-15T10:57:50;9.30;1.00
20284;DHT22;10301;50.832;4.080;2023-02-15T11:03:33;9.30;1.00
20284;DHT22;10301;50.832;4.080;2023-02-15T11:06:06;9.30;99.90
20284;DHT22;10301;50.832;4.080;2023-02-15T11:08:54;9.30;99.90
20284;DHT22;10301;50.832;4.080;2023-02-15T11:11:31;9.40;34.70
20284;DHT22;10301;50.832;4.080;2023-02-15T11:14:01;9.30;99.90
20284;DHT22;10301;50.832;4.080;2023-02-15T11:16:36;9.50;76.30
20284;DHT22;10301;50.832;4.080;2023-02-15T11:19:23;9.60;59.90
20284;DHT22;10301;50.832;4.080;2023-02-15T11:21:57;9.70;1.00
20284;DHT22;10301;50.832;4.080;2023-02-15T11:24:26;9.90;1.00
20284;DHT22;10301;50.832;4.080;2023-02-15T11:26:57;9.90;1.00
20284;DHT22;10301;50.832;4.080;2023-02-15T11:29:32;9.80;1.00
20284;DHT22;10301;50.832;4.080;2023-02-15T11:32:12;10.00;1.00
20284;DHT22;10301;50.832;4.080;2023-02-15T11:34:48;10.10;1.00
20284;DHT22;10301;50.832;4.080;2023-02-15T11:37:18;10.10;1.00
20284;DHT22;10301;50.832;4.080;2023-02-15T11:39:45;10.20;99.90
20284;DHT22;10301;50.832;4.080;2023-02-15T11:42:20;10.10;1.00
20284;DHT22;10301;50.832;4.080;2023-02-15T11:47:19;10.50;99.90
20284;DHT22;10301;50.832;4.080;2023-02-15T11:49:45;10.70;1.00
20284;DHT22;10301;50.832;4.080;2023-02-15T11:52:13;10.80;1.00
20284;DHT22;10301;50.832;4.080;2023-02-15T11:54:43;10.80;1.00
20284;DHT22;10301;50.832;4.080;2023-02-15T12:00:25;10.90;1.00
20284;DHT22;10301;50.832;4.080;2023-02-15T12:02:54;11.20;99.90
20284;DHT22;10301;50.832;4.080;2023-02-15T12:05:24;11.00;1.00
20284;DHT22;10301;50.832;4.080;2023-02-15T12:08:16;10.90;99.90
20284;DHT22;10301;50.832;4.080;2023-02-15T12:13:19;10.40;1.00
20284;DHT22;10301;50.832;4.080;2023-02-15T12:15:47;10.40;1.00
20284;DHT22;10301;50.832;4.080;2023-02-15T12:18:34;10.80;1.00
20284;DHT22;10301;50.832;4.080;2023-02-15T12:21:05;11.00;99.90
20284;DHT22;10301;50.832;4.080;2023-02-15T12:23:32;11.00;1.00
20284;DHT22;10301;50.832;4.080;2023-02-15T12:25:59;11.40;99.90
20284;DHT22;10301;50.832;4.080;2023-02-15T12:29:15;11.50;1.00
20284;DHT22;10301;50.832;4.080;2023-02-15T12:31:44;11.30;99.90
20284;DHT22;10301;50.832;4.080;2023-02-15T12:34:22;11.60;1.00
20284;DHT22;10301;50.832;4.080;2023-02-15T12:36:51;11.70;1.00
20284;DHT22;10301;50.832;4.080;2023-02-15T12:39:31;12.00;99.90
20284;DHT22;10301;50.832;4.080;2023-02-15T12:44:25;12.20;99.90
20284;DHT22;10301;50.832;4.080;2023-02-15T12:47:02;12.20;99.90
20284;DHT22;10301;50.832;4.080;2023-02-15T12:49:33;12.20;1.00
20284;DHT22;10301;50.832;4.080;2023-02-15T12:52:05;12.40;1.00
20284;DHT22;10301;50.832;4.080;2023-02-15T12:54:38;12.40;1.00
20284;DHT22;10301;50.832;4.080;2023-02-15T12:59:59;12.80;1.00
20284;DHT22;10301;50.832;4.080;2023-02-15T13:02:29;12.70;1.00
20284;DHT22;10301;50.832;4.080;2023-02-15T13:04:57;12.80;1.00
20284;DHT22;10301;50.832;4.080;2023-02-15T13:07:31;12.90;1.00
20284;DHT22;10301;50.832;4.080;2023-02-15T13:09:57;12.80;99.90
20284;DHT22;10301;50.832;4.080;2023-02-15T13:12:25;12.60;1.00
20284;DHT22;10301;50.832;4.080;2023-02-15T13:14:56;12.30;1.00
20284;DHT22;10301;50.832;4.080;2023-02-15T13:17:28;12.40;1.00
20284;DHT22;10301;50.832;4.080;2023-02-15T13:19:57;12.70;59.80
20284;DHT22;10301;50.832;4.080;2023-02-15T13:22:33;12.90;1.00
20284;DHT22;10301;50.832;4.080;2023-02-15T13:25:11;13.10;1.00
20284;DHT22;10301;50.832;4.080;2023-02-15T13:27:41;12.70;1.00
20284;DHT22;10301;50.832;4.080;2023-02-15T13:33:30;13.20;99.90
20284;DHT22;10301;50.832;4.080;2023-02-15T13:39:40;13.20;1.00
20284;DHT22;10301;50.832;4.080;2023-02-15T13:52:27;12.80;34.30
20284;DHT22;10301;50.832;4.080;2023-02-15T14:08:22;12.60;99.90
20284;DHT22;10301;50.832;4.080;2023-02-15T14:10:59;12.60;1.00
20284;DHT22;10301;50.832;4.080;2023-02-15T14:13:42;12.60;49.90
20284;DHT22;10301;50.832;4.080;2023-02-15T14:18:44;12.60;99.90
20284;DHT22;10301;50.832;4.080;2023-02-15T14:24:09;12.50;99.90
20284;DHT22;10301;50.832;4.080;2023-02-15T14:26:50;12.50;99.90
20284;DHT22;10301;50.832;4.080;2023-02-15T14:29:34;12.50;1.00
20284;DHT22;10301;50.832;4.080;2023-02-15T14:32:23;12.60;99.90
20284;DHT22;10301;50.832;4.080;2023-02-15T14:34:59;12.80;1.00
20284;DHT22;10301;50.832;4.080;2023-02-15T14:37:49;12.50;1.00
20284;DHT22;10301;50.832;4.080;2023-02-15T14:40:48;12.60;1.00
20284;DHT22;10301;50.832;4.080;2023-02-15T14:44:00;12.60;1.00
20284;DHT22;10301;50.832;4.080;2023-02-15T14:46:24;12.80;99.90
20284;DHT22;10301;50.832;4.080;2023-02-15T14:49:12;12.90;99.90
20284;DHT22;10301;50.832;4.080;2023-02-15T15:02:25;12.60;1.00
20284;DHT22;10301;50.832;4.080;2023-02-15T15:07:53;12.50;99.90
20284;DHT22;10301;50.832;4.080;2023-02-15T15:18:07;12.40;99.90
20284;DHT22;10301;50.832;4.080;2023-02-15T15:20:48;12.40;1.00
20284;DHT22;10301;50.832;4.080;2023-02-15T15:48:03;12.10;99.90
20284;DHT22;10301;50.832;4.080;2023-02-15T15:50:33;12.10;99.90
20284;DHT22;10301;50.832;4.080;2023-02-15T15:53:01;12.20;1.00
20284;DHT22;10301;50.832;4.080;2023-02-15T15:55:30;12.10;1.00
20284;DHT22;10301;50.832;4.080;2023-02-15T15:58:01;12.00;1.00
20284;DHT22;10301;50.832;4.080;2023-02-15T16:00:43;12.00;50.00
20284;DHT22;10301;50.832;4.080;2023-02-15T16:03:22;11.90;99.90
20284;DHT22;10301;50.832;4.080;2023-02-15T16:05:48;11.50;1.00
20284;DHT22;10301;50.832;4.080;2023-02-15T16:08:30;11.40;1.00
20284;DHT22;10301;50.832;4.080;2023-02-15T16:10:56;11.30;99.90
20284;DHT22;10301;50.832;4.080;2023-02-15T16:13:23;11.40;99.90
20284;DHT22;10301;50.832;4.080;2023-02-15T16:15:53;11.60;1.00
20284;DHT22;10301;50.832;4.080;2023-02-15T16:18:23;11.80;99.90
20284;DHT22;10301;50.832;4.080;2023-02-15T16:20:55;11.80;99.90
20284;DHT22;10301;50.832;4.080;2023-02-15T16:23:56;11.80;1.00
20284;DHT22;10301;50.832;4.080;2023-02-15T16:26:44;11.80;1.00
20284;DHT22;10301;50.832;4.080;2023-02-15T16:29:16;11.40;1.00
20284;DHT22;10301;50.832;4.080;2023-02-15T16:31:43;11.20;99.90
20284;DHT22;10301;50.832;4.080;2023-02-15T16:34:18;11.00;1.00
20284;DHT22;10301;50.832;4.080;2023-02-15T16:36:43;10.90;1.00
20284;DHT22;10301;50.832;4.080;2023-02-15T16:39:19;10.80;1.00
20284;DHT22;10301;50.832;4.080;2023-02-15T16:41:47;10.60;99.90
20284;DHT22;10301;50.832;4.080;2023-02-15T16:44:18;10.50;99.90
20284;DHT22;10301;50.832;4.080;2023-02-15T16:46:47;10.40;99.90
20284;DHT22;10301;50.832;4.080;2023-02-15T16:49:17;10.50;99.90
20284;DHT22;10301;50.832;4.080;2023-02-15T16:51:44;10.40;1.00
20284;DHT22;10301;50.832;4.080;2023-02-15T16:54:19;10.20;1.00
20284;DHT22;10301;50.832;4.080;2023-02-15T16:56:46;10.10;1.00
20284;DHT22;10301;50.832;4.080;2023-02-15T16:59:32;10.10;1.00
20284;DHT22;10301;50.832;4.080;2023-02-15T17:02:00;10.10;1.00
20284;DHT22;10301;50.832;4.080;2023-02-15T17:04:30;10.10;1.00
20284;DHT22;10301;50.832;4.080;2023-02-15T17:09:28;10.00;1.00
20284;DHT22;10301;50.832;4.080;2023-02-15T17:11:54;10.00;1.00
20284;DHT22;10301;50.832;4.080;2023-02-15T17:14:27;10.10;1.00
20284;DHT22;10301;50.832;4.080;2023-02-15T17:17:07;10.00;1.00
20284;DHT22;10301;50.832;4.080;2023-02-15T17:19:53;10.20;1.00
20284;DHT22;10301;50.832;4.080;2023-02-15T17:22:25;9.90;1.00
20284;DHT22;10301;50.832;4.080;2023-02-15T17:25:02;9.80;1.00
20284;DHT22;10301;50.832;4.080;2023-02-15T17:27:30;9.80;1.00
20284;DHT22;10301;50.832;4.080;2023-02-15T17:30:02;9.90;1.00
20284;DHT22;10301;50.832;4.080;2023-02-15T17:32:30;10.00;1.00
20284;DHT22;10301;50.832;4.080;2023-02-15T17:35:17;10.00;1.00
20284;DHT22;10301;50.832;4.080;2023-02-15T17:37:46;10.20;1.00
20284;DHT22;10301;50.832;4.080;2023-02-15T17:40:21;10.10;1.00
20284;DHT22;10301;50.832;4.080;2023-02-15T17:42:47;10.00;1.00
20284;DHT22;10301;50.832;4.080;2023-02-15T17:45:14;9.90;1.00
20284;DHT22;10301;50.832;4.080;2023-02-15T17:47:40;9.80;1.00
20284;DHT22;10301;50.832;4.080;2023-02-15T17:50:07;9.70;1.00
20284;DHT22;10301;50.832;4.080;2023-02-15T17:52:33;9.70;1.00
20284;DHT22;10301;50.832;4.080;2023-02-15T17:55:01;9.80;1.00
20284;DHT22;10301;50.832;4.080;2023-02-15T17:57:51;9.80;1.00
20284;DHT22;10301;50.832;4.080;2023-02-15T18:00:17;9.90;1.00
20284;DHT22;10301;50.832;4.080;2023-02-15T18:03:01;10.00;1.00
20284;DHT22;10301;50.832;4.080;2023-02-15T18:05:45;9.90;1.00
20284;DHT22;10301;50.832;4.080;2023-02-15T18:08:29;10.10;99.90
20284;DHT22;10301;50.832;4.080;2023-02-15T18:11:13;10.10;99.90
20284;DHT22;10301;50.832;4.080;2023-02-15T18:13:57;9.90;1.00
20284;DHT22;10301;50.832;4.080;2023-02-15T18:16:31;9.80;1.00
20284;DHT22;10301;50.832;4.080;2023-02-15T18:18:57;9.80;1.00
20284;DHT22;10301;50.832;4.080;2023-02-15T18:21:23;9.80;1.00
20284;DHT22;10301;50.832;4.080;2023-02-15T18:23:49;9.90;1.00
20284;DHT22;10301;50.832;4.080;2023-02-15T18:26:22;9.60;1.00
20284;DHT22;10301;50.832;4.080;2023-02-15T18:28:49;9.70;1.00
20284;DHT22;10301;50.832;4.080;2023-02-15T18:31:15;9.60;1.00
20284;DHT22;10301;50.832;4.080;2023-02-15T18:33:46;9.70;1.00
20284;DHT22;10301;50.832;4.080;2023-02-15T18:36:39;9.80;1.00
20284;DHT22;10301;50.832;4.080;2023-02-15T18:39:30;9.70;1.00
20284;DHT22;10301;50.832;4.080;2023-02-15T18:41:58;9.70;1.00
20284;DHT22;10301;50.832;4.080;2023-02-15T18:44:25;9.80;1.00
20284;DHT22;10301;50.832;4.080;2023-02-15T18:46:51;9.80;1.00
20284;DHT22;10301;50.832;4.080;2023-02-15T18:49:16;9.70;1.00
20284;DHT22;10301;50.832;4.080;2023-02-15T18:51:43;9.70;1.00
20284;DHT22;10301;50.832;4.080;2023-02-15T18:54:23;9.50;1.00
20284;DHT22;10301;50.832;4.080;2023-02-15T18:56:54;9.40;1.00
20284;DHT22;10301;50.832;4.080;2023-02-15T18:59:21;9.40;1.00
20284;DHT22;10301;50.832;4.080;2023-02-15T19:01:48;9.20;1.00
20284;DHT22;10301;50.832;4.080;2023-02-15T19:04:13;9.00;1.00
20284;DHT22;10301;50.832;4.080;2023-02-15T19:06:43;8.90;1.00
20284;DHT22;10301;50.832;4.080;2023-02-15T19:09:14;8.70;1.00
20284;DHT22;10301;50.832;4.080;2023-02-15T19:11:42;8.60;1.00
20284;DHT22;10301;50.832;4.080;2023-02-15T19:14:25;8.50;1.00